sensor_id;sensor_type;location;lat;lon;timestamp;P1;durP1;ratioP1;P2;durP2;ratioP2
22107;SDS011;11220;48.812;9.128;2023-08-06T00:01:51;0.68;;;0.40;;
22107;SDS011;11220;48.812;9.128;2023-08-06T00:04:16;0.30;;;0.30;;
22107;SDS011;11220;48.812;9.128;2023-08-06T00:06:42;0.40;;;0.40;;
22107;SDS011;11220;48.812;9.128;2023-08-06T00:09:07;0.45;;;0.30;;
22107;SDS011;11220;48.812;9.128;2023-08-06T00:11:33;0.30;;;0.30;;
22107;SDS011;11220;48.812;9.128;2023-08-06T00:13:58;0.40;;;0.40;;
22107;SDS011;11220;48.812;9.128;2023-08-06T00:16:24;0.40;;;0.40;;
22107;SDS011;11220;48.812;9.128;2023-08-06T00:18:49;0.30;;;0.30;;
22107;SDS011;11220;48.812;9.128;2023-08-06T00:21:15;0.47;;;0.30;;
22107;SDS011;11220;48.812;9.128;2023-08-06T00:23:41;0.40;;;0.40;;
22107;SDS011;11220;48.812;9.128;2023-08-06T00:26:07;0.40;;;0.40;;
22107;SDS011;11220;48.812;9.128;2023-08-06T00:28:32;0.47;;;0.45;;
22107;SDS011;11220;48.812;9.128;2023-08-06T00:30:58;0.47;;;0.40;;
22107;SDS011;11220;48.812;9.128;2023-08-06T00:33:23;0.50;;;0.47;;
22107;SDS011;11220;48.812;9.128;2023-08-06T00:35:49;0.30;;;0.30;;
22107;SDS011;11220;48.812;9.128;2023-08-06T00:38:15;0.30;;;0.30;;
22107;SDS011;11220;48.812;9.128;2023-08-06T00:40:40;0.52;;;0.40;;
22107;SDS011;11220;48.812;9.128;2023-08-06T00:43:06;0.30;;;0.30;;
22107;SDS011;11220;48.812;9.128;2023-08-06T00:45:34;0.50;;;0.40;;
22107;SDS011;11220;48.812;9.128;2023-08-06T00:48:00;0.40;;;0.30;;
22107;SDS011;11220;48.812;9.128;2023-08-06T00:50:28;0.40;;;0.40;;
22107;SDS011;11220;48.812;9.128;2023-08-06T00:52:54;0.50;;;0.50;;
22107;SDS011;11220;48.812;9.128;2023-08-06T00:55:20;0.32;;;0.32;;
22107;SDS011;11220;48.812;9.128;2023-08-06T00:57:46;0.40;;;0.40;;
22107;SDS011;11220;48.812;9.128;2023-08-06T01:00:12;0.40;;;0.40;;
22107;SDS011;11220;48.812;9.128;2023-08-06T01:02:38;0.40;;;0.40;;
22107;SDS011;11220;48.812;9.128;2023-08-06T01:05:04;0.80;;;0.52;;
22107;SDS011;11220;48.812;9.128;2023-08-06T01:10:36;0.30;;;0.30;;
22107;SDS011;11220;48.812;9.128;2023-08-06T01:13:17;0.55;;;0.40;;
22107;SDS011;11220;48.812;9.128;2023-08-06T01:16:02;0.50;;;0.50;;
22107;SDS011;11220;48.812;9.128;2023-08-06T01:18:30;0.40;;;0.40;;
22107;SDS011;11220;48.812;9.128;2023-08-06T01:20:56;0.40;;;0.40;;
22107;SDS011;11220;48.812;9.128;2023-08-06T01:23:22;0.40;;;0.40;;
22107;SDS011;11220;48.812;9.128;2023-08-06T01:28:21;0.32;;;0.32;;
22107;SDS011;11220;48.812;9.128;2023-08-06T01:30:54;0.50;;;0.50;;
22107;SDS011;11220;48.812;9.128;2023-08-06T01:33:22;0.63;;;0.50;;
22107;SDS011;11220;48.812;9.128;2023-08-06T01:35:48;0.45;;;0.40;;
22107;SDS011;11220;48.812;9.128;2023-08-06T01:38:15;0.30;;;0.30;;
22107;SDS011;11220;48.812;9.128;2023-08-06T01:40:41;0.35;;;0.35;;
22107;SDS011;11220;48.812;9.128;2023-08-06T01:43:06;0.32;;;0.32;;
22107;SDS011;11220;48.812;9.128;2023-08-06T01:45:32;0.65;;;0.50;;
22107;SDS011;11220;48.812;9.128;2023-08-06T01:47:57;0.43;;;0.43;;
22107;SDS011;11220;48.812;9.128;2023-08-06T01:50:23;0.30;;;0.30;;
22107;SDS011;11220;48.812;9.128;2023-08-06T01:52:48;0.35;;;0.35;;
22107;SDS011;11220;48.812;9.128;2023-08-06T01:55:14;0.40;;;0.40;;
22107;SDS011;11220;48.812;9.128;2023-08-06T01:57:39;0.50;;;0.50;;
22107;SDS011;11220;48.812;9.128;2023-08-06T02:00:05;0.30;;;0.30;;
22107;SDS011;11220;48.812;9.128;2023-08-06T02:02:31;0.40;;;0.40;;
22107;SDS011;11220;48.812;9.128;2023-08-06T02:04:56;0.40;;;0.40;;
22107;SDS011;11220;48.812;9.128;2023-08-06T02:07:23;0.30;;;0.30;;
22107;SDS011;11220;48.812;9.128;2023-08-06T02:09:48;0.30;;;0.30;;
22107;SDS011;11220;48.812;9.128;2023-08-06T02:12:14;0.30;;;0.30;;
22107;SDS011;11220;48.812;9.128;2023-08-06T02:14:39;0.35;;;0.35;;
22107;SDS011;11220;48.812;9.128;2023-08-06T02:17:05;0.60;;;0.30;;
22107;SDS011;11220;48.812;9.128;2023-08-06T02:19:30;0.75;;;0.40;;
22107;SDS011;11220;48.812;9.128;2023-08-06T02:21:56;0.50;;;0.50;;
22107;SDS011;11220;48.812;9.128;2023-08-06T02:24:22;0.57;;;0.40;;
22107;SDS011;11220;48.812;9.128;2023-08-06T02:26:47;0.50;;;0.30;;
22107;SDS011;11220;48.812;9.128;2023-08-06T02:29:15;0.55;;;0.40;;
22107;SDS011;11220;48.812;9.128;2023-08-06T02:31:41;0.40;;;0.40;;
22107;SDS011;11220;48.812;9.128;2023-08-06T02:34:07;0.50;;;0.30;;
22107;SDS011;11220;48.812;9.128;2023-08-06T02:36:32;0.32;;;0.32;;
22107;SDS011;11220;48.812;9.128;2023-08-06T02:38:58;0.30;;;0.30;;
22107;SDS011;11220;48.812;9.128;2023-08-06T02:41:23;0.40;;;0.40;;
22107;SDS011;11220;48.812;9.128;2023-08-06T02:43:49;0.50;;;0.40;;
22107;SDS011;11220;48.812;9.128;2023-08-06T02:46:14;0.30;;;0.30;;
22107;SDS011;11220;48.812;9.128;2023-08-06T02:48:40;0.40;;;0.35;;
22107;SDS011;11220;48.812;9.128;2023-08-06T02:51:05;0.30;;;0.30;;
22107;SDS011;11220;48.812;9.128;2023-08-06T02:53:31;0.60;;;0.40;;
22107;SDS011;11220;48.812;9.128;2023-08-06T02:55:56;0.40;;;0.30;;
22107;SDS011;11220;48.812;9.128;2023-08-06T02:58:22;0.30;;;0.30;;
22107;SDS011;11220;48.812;9.128;2023-08-06T03:01:04;0.40;;;0.32;;
22107;SDS011;11220;48.812;9.128;2023-08-06T03:03:31;0.60;;;0.50;;
22107;SDS011;11220;48.812;9.128;2023-08-06T03:05:56;0.30;;;0.20;;
22107;SDS011;11220;48.812;9.128;2023-08-06T03:08:22;0.40;;;0.35;;
22107;SDS011;11220;48.812;9.128;2023-08-06T03:10:51;0.40;;;0.40;;
22107;SDS011;11220;48.812;9.128;2023-08-06T03:13:17;0.40;;;0.40;;
22107;SDS011;11220;48.812;9.128;2023-08-06T03:15:43;0.20;;;0.20;;
22107;SDS011;11220;48.812;9.128;2023-08-06T03:18:17;0.20;;;0.20;;
22107;SDS011;11220;48.812;9.128;2023-08-06T03:20:44;0.40;;;0.30;;
22107;SDS011;11220;48.812;9.128;2023-08-06T03:23:09;0.35;;;0.35;;
22107;SDS011;11220;48.812;9.128;2023-08-06T03:25:35;1.30;;;0.45;;
22107;SDS011;11220;48.812;9.128;2023-08-06T03:28:02;0.30;;;0.30;;
22107;SDS011;11220;48.812;9.128;2023-08-06T03:30:30;0.40;;;0.38;;
22107;SDS011;11220;48.812;9.128;2023-08-06T03:32:56;0.30;;;0.30;;
22107;SDS011;11220;48.812;9.128;2023-08-06T03:35:21;0.20;;;0.20;;
22107;SDS011;11220;48.812;9.128;2023-08-06T03:37:47;0.40;;;0.40;;
22107;SDS011;11220;48.812;9.128;2023-08-06T03:40:13;0.20;;;0.20;;
22107;SDS011;11220;48.812;9.128;2023-08-06T03:42:38;0.40;;;0.32;;
22107;SDS011;11220;48.812;9.128;2023-08-06T03:45:04;0.28;;;0.25;;
22107;SDS011;11220;48.812;9.128;2023-08-06T03:47:30;0.20;;;0.20;;
22107;SDS011;11220;48.812;9.128;2023-08-06T03:49:56;0.30;;;0.22;;
22107;SDS011;11220;48.812;9.128;2023-08-06T03:52:21;0.75;;;0.40;;
22107;SDS011;11220;48.812;9.128;2023-08-06T03:54:47;0.50;;;0.40;;
22107;SDS011;11220;48.812;9.128;2023-08-06T03:57:12;0.43;;;0.40;;
22107;SDS011;11220;48.812;9.128;2023-08-06T03:59:38;0.30;;;0.30;;
22107;SDS011;11220;48.812;9.128;2023-08-06T04:02:03;0.35;;;0.30;;
22107;SDS011;11220;48.812;9.128;2023-08-06T04:04:29;0.30;;;0.30;;
22107;SDS011;11220;48.812;9.128;2023-08-06T04:06:54;0.30;;;0.30;;
22107;SDS011;11220;48.812;9.128;2023-08-06T04:09:20;0.30;;;0.30;;
22107;SDS011;11220;48.812;9.128;2023-08-06T04:11:46;0.20;;;0.20;;
22107;SDS011;11220;48.812;9.128;2023-08-06T04:14:11;0.45;;;0.32;;
22107;SDS011;11220;48.812;9.128;2023-08-06T04:16:37;0.40;;;0.40;;
22107;SDS011;11220;48.812;9.128;2023-08-06T04:19:02;0.30;;;0.30;;
22107;SDS011;11220;48.812;9.128;2023-08-06T04:21:28;0.40;;;0.40;;
22107;SDS011;11220;48.812;9.128;2023-08-06T04:23:53;0.20;;;0.20;;
22107;SDS011;11220;48.812;9.128;2023-08-06T04:26:19;0.45;;;0.40;;
22107;SDS011;11220;48.812;9.128;2023-08-06T04:28:44;0.30;;;0.30;;
22107;SDS011;11220;48.812;9.128;2023-08-06T04:31:10;0.30;;;0.30;;
22107;SDS011;11220;48.812;9.128;2023-08-06T04:33:35;0.30;;;0.30;;
22107;SDS011;11220;48.812;9.128;2023-08-06T04:36:01;0.50;;;0.30;;
22107;SDS011;11220;48.812;9.128;2023-08-06T04:38:26;0.63;;;0.38;;
22107;SDS011;11220;48.812;9.128;2023-08-06T04:40:52;0.30;;;0.25;;
22107;SDS011;11220;48.812;9.128;2023-08-06T04:43:18;0.30;;;0.30;;
22107;SDS011;11220;48.812;9.128;2023-08-06T04:45:48;0.40;;;0.30;;
22107;SDS011;11220;48.812;9.128;2023-08-06T04:48:14;0.30;;;0.30;;
22107;SDS011;11220;48.812;9.128;2023-08-06T04:50:43;0.20;;;0.20;;
22107;SDS011;11220;48.812;9.128;2023-08-06T04:55:35;0.38;;;0.30;;
22107;SDS011;11220;48.812;9.128;2023-08-06T04:58:01;1.17;;;0.30;;
22107;SDS011;11220;48.812;9.128;2023-08-06T05:00:27;0.30;;;0.22;;
22107;SDS011;11220;48.812;9.128;2023-08-06T05:02:52;0.35;;;0.30;;
22107;SDS011;11220;48.812;9.128;2023-08-06T05:05:18;0.30;;;0.30;;
22107;SDS011;11220;48.812;9.128;2023-08-06T05:07:43;0.20;;;0.20;;
22107;SDS011;11220;48.812;9.128;2023-08-06T05:10:10;0.30;;;0.30;;
22107;SDS011;11220;48.812;9.128;2023-08-06T05:12:35;0.20;;;0.20;;
22107;SDS011;11220;48.812;9.128;2023-08-06T05:15:01;0.40;;;0.40;;
22107;SDS011;11220;48.812;9.128;2023-08-06T05:17:26;0.38;;;0.20;;
22107;SDS011;11220;48.812;9.128;2023-08-06T05:19:52;0.25;;;0.20;;
22107;SDS011;11220;48.812;9.128;2023-08-06T05:22:17;0.10;;;0.10;;
22107;SDS011;11220;48.812;9.128;2023-08-06T05:24:43;0.30;;;0.25;;
22107;SDS011;11220;48.812;9.128;2023-08-06T05:27:08;0.38;;;0.20;;
22107;SDS011;11220;48.812;9.128;2023-08-06T05:29:34;0.20;;;0.20;;
22107;SDS011;11220;48.812;9.128;2023-08-06T05:31:59;0.30;;;0.20;;
22107;SDS011;11220;48.812;9.128;2023-08-06T05:34:25;0.40;;;0.30;;
22107;SDS011;11220;48.812;9.128;2023-08-06T05:36:51;0.28;;;0.20;;
22107;SDS011;11220;48.812;9.128;2023-08-06T05:39:17;0.20;;;0.20;;
22107;SDS011;11220;48.812;9.128;2023-08-06T05:41:43;0.30;;;0.20;;
22107;SDS011;11220;48.812;9.128;2023-08-06T05:44:08;0.30;;;0.30;;
22107;SDS011;11220;48.812;9.128;2023-08-06T05:46:34;0.30;;;0.30;;
22107;SDS011;11220;48.812;9.128;2023-08-06T05:48:59;0.20;;;0.20;;
22107;SDS011;11220;48.812;9.128;2023-08-06T05:51:26;0.20;;;0.10;;
22107;SDS011;11220;48.812;9.128;2023-08-06T05:53:52;0.30;;;0.20;;
22107;SDS011;11220;48.812;9.128;2023-08-06T05:56:17;0.30;;;0.22;;
22107;SDS011;11220;48.812;9.128;2023-08-06T05:58:43;0.10;;;0.10;;
22107;SDS011;11220;48.812;9.128;2023-08-06T06:01:08;0.13;;;0.10;;
22107;SDS011;11220;48.812;9.128;2023-08-06T06:03:34;0.30;;;0.20;;
22107;SDS011;11220;48.812;9.128;2023-08-06T06:06:00;0.10;;;0.10;;
22107;SDS011;11220;48.812;9.128;2023-08-06T06:08:26;0.30;;;0.15;;
22107;SDS011;11220;48.812;9.128;2023-08-06T06:10:51;0.10;;;0.10;;
22107;SDS011;11220;48.812;9.128;2023-08-06T06:13:17;0.30;;;0.20;;
22107;SDS011;11220;48.812;9.128;2023-08-06T06:15:42;0.40;;;0.20;;
22107;SDS011;11220;48.812;9.128;2023-08-06T06:18:08;0.00;;;0.00;;
22107;SDS011;11220;48.812;9.128;2023-08-06T06:20:33;0.10;;;0.10;;
22107;SDS011;11220;48.812;9.128;2023-08-06T06:22:59;0.10;;;0.10;;
22107;SDS011;11220;48.812;9.128;2023-08-06T06:25:24;0.20;;;0.10;;
22107;SDS011;11220;48.812;9.128;2023-08-06T06:27:50;0.10;;;0.08;;
22107;SDS011;11220;48.812;9.128;2023-08-06T06:30:16;0.20;;;0.20;;
22107;SDS011;11220;48.812;9.128;2023-08-06T06:32:42;0.10;;;0.10;;
22107;SDS011;11220;48.812;9.128;2023-08-06T06:35:08;0.10;;;0.10;;
22107;SDS011;11220;48.812;9.128;2023-08-06T06:37:34;0.00;;;0.00;;
22107;SDS011;11220;48.812;9.128;2023-08-06T06:40:00;0.10;;;0.10;;
22107;SDS011;11220;48.812;9.128;2023-08-06T06:42:26;0.10;;;0.10;;
22107;SDS011;11220;48.812;9.128;2023-08-06T06:44:51;0.57;;;0.10;;
22107;SDS011;11220;48.812;9.128;2023-08-06T06:47:17;0.22;;;0.10;;
22107;SDS011;11220;48.812;9.128;2023-08-06T06:49:42;0.10;;;0.03;;
22107;SDS011;11220;48.812;9.128;2023-08-06T06:52:08;0.20;;;0.10;;
22107;SDS011;11220;48.812;9.128;2023-08-06T06:54:33;0.10;;;0.10;;
22107;SDS011;11220;48.812;9.128;2023-08-06T06:56:59;0.52;;;0.10;;
22107;SDS011;11220;48.812;9.128;2023-08-06T06:59:24;0.43;;;0.10;;
22107;SDS011;11220;48.812;9.128;2023-08-06T07:01:50;0.00;;;0.00;;
22107;SDS011;11220;48.812;9.128;2023-08-06T07:04:15;0.08;;;0.08;;
22107;SDS011;11220;48.812;9.128;2023-08-06T07:06:41;0.10;;;0.03;;
22107;SDS011;11220;48.812;9.128;2023-08-06T07:09:06;0.00;;;0.00;;
22107;SDS011;11220;48.812;9.128;2023-08-06T07:11:32;0.10;;;0.10;;
22107;SDS011;11220;48.812;9.128;2023-08-06T07:13:57;0.10;;;0.00;;
22107;SDS011;11220;48.812;9.128;2023-08-06T07:16:24;0.20;;;0.10;;
22107;SDS011;11220;48.812;9.128;2023-08-06T07:18:53;0.00;;;0.00;;
22107;SDS011;11220;48.812;9.128;2023-08-06T07:21:22;0.10;;;0.10;;
22107;SDS011;11220;48.812;9.128;2023-08-06T07:23:47;0.00;;;0.00;;
22107;SDS011;11220;48.812;9.128;2023-08-06T07:26:14;0.25;;;0.10;;
22107;SDS011;11220;48.812;9.128;2023-08-06T07:28:40;0.17;;;0.05;;
22107;SDS011;11220;48.812;9.128;2023-08-06T07:31:06;0.10;;;0.00;;
22107;SDS011;11220;48.812;9.128;2023-08-06T07:33:31;0.00;;;0.00;;
22107;SDS011;11220;48.812;9.128;2023-08-06T07:35:57;0.00;;;0.00;;
22107;SDS011;11220;48.812;9.128;2023-08-06T07:38:22;0.00;;;0.00;;
22107;SDS011;11220;48.812;9.128;2023-08-06T07:40:48;0.00;;;0.00;;
22107;SDS011;11220;48.812;9.128;2023-08-06T07:43:13;0.00;;;0.00;;
22107;SDS011;11220;48.812;9.128;2023-08-06T07:45:39;0.10;;;0.00;;
22107;SDS011;11220;48.812;9.128;2023-08-06T07:48:04;0.28;;;0.00;;
22107;SDS011;11220;48.812;9.128;2023-08-06T07:50:30;0.00;;;0.00;;
22107;SDS011;11220;48.812;9.128;2023-08-06T07:52:56;0.10;;;0.10;;
22107;SDS011;11220;48.812;9.128;2023-08-06T07:55:21;0.08;;;0.00;;
22107;SDS011;11220;48.812;9.128;2023-08-06T07:57:47;0.00;;;0.00;;
22107;SDS011;11220;48.812;9.128;2023-08-06T08:00:12;0.20;;;0.00;;
22107;SDS011;11220;48.812;9.128;2023-08-06T08:02:38;0.10;;;0.00;;
22107;SDS011;11220;48.812;9.128;2023-08-06T08:05:04;0.00;;;0.00;;
22107;SDS011;11220;48.812;9.128;2023-08-06T08:07:30;0.03;;;0.00;;
22107;SDS011;11220;48.812;9.128;2023-08-06T08:09:56;0.10;;;0.05;;
22107;SDS011;11220;48.812;9.128;2023-08-06T08:12:22;0.00;;;0.00;;
22107;SDS011;11220;48.812;9.128;2023-08-06T08:14:48;0.10;;;0.00;;
22107;SDS011;11220;48.812;9.128;2023-08-06T08:17:13;0.00;;;0.00;;
22107;SDS011;11220;48.812;9.128;2023-08-06T08:19:39;0.00;;;0.00;;
22107;SDS011;11220;48.812;9.128;2023-08-06T08:22:05;0.00;;;0.00;;
22107;SDS011;11220;48.812;9.128;2023-08-06T08:24:31;0.00;;;0.00;;
22107;SDS011;11220;48.812;9.128;2023-08-06T08:26:57;0.00;;;0.00;;
22107;SDS011;11220;48.812;9.128;2023-08-06T08:29:22;0.00;;;0.00;;
22107;SDS011;11220;48.812;9.128;2023-08-06T08:31:48;0.00;;;0.00;;
22107;SDS011;11220;48.812;9.128;2023-08-06T08:34:17;0.00;;;0.00;;
22107;SDS011;11220;48.812;9.128;2023-08-06T08:36:43;0.00;;;0.00;;
22107;SDS011;11220;48.812;9.128;2023-08-06T08:39:12;0.00;;;0.00;;
22107;SDS011;11220;48.812;9.128;2023-08-06T08:41:37;0.00;;;0.00;;
22107;SDS011;11220;48.812;9.128;2023-08-06T08:44:05;0.00;;;0.00;;
22107;SDS011;11220;48.812;9.128;2023-08-06T08:46:35;0.00;;;0.00;;
22107;SDS011;11220;48.812;9.128;2023-08-06T08:49:03;0.00;;;0.00;;
22107;SDS011;11220;48.812;9.128;2023-08-06T08:51:29;0.00;;;0.00;;
22107;SDS011;11220;48.812;9.128;2023-08-06T08:53:56;0.00;;;0.00;;
22107;SDS011;11220;48.812;9.128;2023-08-06T08:56:22;0.00;;;0.00;;
22107;SDS011;11220;48.812;9.128;2023-08-06T08:58:48;0.00;;;0.00;;
22107;SDS011;11220;48.812;9.128;2023-08-06T09:01:14;0.00;;;0.00;;
22107;SDS011;11220;48.812;9.128;2023-08-06T09:03:41;0.00;;;0.00;;
22107;SDS011;11220;48.812;9.128;2023-08-06T09:06:08;0.00;;;0.00;;
22107;SDS011;11220;48.812;9.128;2023-08-06T09:08:37;0.00;;;0.00;;
22107;SDS011;11220;48.812;9.128;2023-08-06T09:11:08;0.00;;;0.00;;
22107;SDS011;11220;48.812;9.128;2023-08-06T09:13:36;0.00;;;0.00;;
22107;SDS011;11220;48.812;9.128;2023-08-06T09:16:03;0.10;;;0.00;;
22107;SDS011;11220;48.812;9.128;2023-08-06T09:18:29;0.00;;;0.00;;
22107;SDS011;11220;48.812;9.128;2023-08-06T09:20:56;0.00;;;0.00;;
22107;SDS011;11220;48.812;9.128;2023-08-06T09:23:31;0.00;;;0.00;;
22107;SDS011;11220;48.812;9.128;2023-08-06T09:25:58;0.00;;;0.00;;
22107;SDS011;11220;48.812;9.128;2023-08-06T09:28:24;0.00;;;0.00;;
22107;SDS011;11220;48.812;9.128;2023-08-06T09:31:01;0.00;;;0.00;;
22107;SDS011;11220;48.812;9.128;2023-08-06T09:33:26;0.00;;;0.00;;
22107;SDS011;11220;48.812;9.128;2023-08-06T09:35:54;0.00;;;0.00;;
22107;SDS011;11220;48.812;9.128;2023-08-06T09:38:20;0.00;;;0.00;;
22107;SDS011;11220;48.812;9.128;2023-08-06T09:40:45;0.00;;;0.00;;
22107;SDS011;11220;48.812;9.128;2023-08-06T09:43:12;0.00;;;0.00;;
22107;SDS011;11220;48.812;9.128;2023-08-06T09:45:38;0.00;;;0.00;;
22107;SDS011;11220;48.812;9.128;2023-08-06T09:48:05;0.00;;;0.00;;
22107;SDS011;11220;48.812;9.128;2023-08-06T09:50:32;0.00;;;0.00;;
22107;SDS011;11220;48.812;9.128;2023-08-06T09:53:03;0.00;;;0.00;;
22107;SDS011;11220;48.812;9.128;2023-08-06T09:55:30;0.00;;;0.00;;
22107;SDS011;11220;48.812;9.128;2023-08-06T09:57:56;0.00;;;0.00;;
22107;SDS011;11220;48.812;9.128;2023-08-06T10:00:24;0.00;;;0.00;;
22107;SDS011;11220;48.812;9.128;2023-08-06T10:02:50;0.00;;;0.00;;
22107;SDS011;11220;48.812;9.128;2023-08-06T10:05:19;0.00;;;0.00;;
22107;SDS011;11220;48.812;9.128;2023-08-06T10:07:45;0.00;;;0.00;;
22107;SDS011;11220;48.812;9.128;2023-08-06T10:10:14;0.00;;;0.00;;
22107;SDS011;11220;48.812;9.128;2023-08-06T10:12:40;0.28;;;0.17;;
22107;SDS011;11220;48.812;9.128;2023-08-06T10:15:25;0.00;;;0.00;;
22107;SDS011;11220;48.812;9.128;2023-08-06T10:17:52;0.00;;;0.00;;
22107;SDS011;11220;48.812;9.128;2023-08-06T10:22:59;0.00;;;0.00;;
22107;SDS011;11220;48.812;9.128;2023-08-06T10:25:35;0.00;;;0.00;;
22107;SDS011;11220;48.812;9.128;2023-08-06T10:28:11;0.05;;;0.00;;
22107;SDS011;11220;48.812;9.128;2023-08-06T10:33:11;0.00;;;0.00;;
22107;SDS011;11220;48.812;9.128;2023-08-06T10:35:38;0.00;;;0.00;;
22107;SDS011;11220;48.812;9.128;2023-08-06T10:38:12;0.00;;;0.00;;
22107;SDS011;11220;48.812;9.128;2023-08-06T10:40:47;0.00;;;0.00;;
22107;SDS011;11220;48.812;9.128;2023-08-06T10:46:21;0.00;;;0.00;;
22107;SDS011;11220;48.812;9.128;2023-08-06T10:48:48;0.00;;;0.00;;
22107;SDS011;11220;48.812;9.128;2023-08-06T10:51:15;0.10;;;0.00;;
22107;SDS011;11220;48.812;9.128;2023-08-06T10:53:41;0.00;;;0.00;;
22107;SDS011;11220;48.812;9.128;2023-08-06T10:56:18;0.00;;;0.00;;
22107;SDS011;11220;48.812;9.128;2023-08-06T10:58:45;0.00;;;0.00;;
22107;SDS011;11220;48.812;9.128;2023-08-06T11:01:11;0.00;;;0.00;;
22107;SDS011;11220;48.812;9.128;2023-08-06T11:03:38;0.00;;;0.00;;
22107;SDS011;11220;48.812;9.128;2023-08-06T11:06:04;0.10;;;0.00;;
22107;SDS011;11220;48.812;9.128;2023-08-06T11:08:35;0.00;;;0.00;;
22107;SDS011;11220;48.812;9.128;2023-08-06T11:11:11;0.20;;;0.00;;
22107;SDS011;11220;48.812;9.128;2023-08-06T11:13:39;0.00;;;0.00;;
22107;SDS011;11220;48.812;9.128;2023-08-06T11:16:05;0.75;;;0.13;;
22107;SDS011;11220;48.812;9.128;2023-08-06T11:18:31;0.00;;;0.00;;
22107;SDS011;11220;48.812;9.128;2023-08-06T11:20:58;0.00;;;0.00;;
22107;SDS011;11220;48.812;9.128;2023-08-06T11:23:26;0.00;;;0.00;;
22107;SDS011;11220;48.812;9.128;2023-08-06T11:25:53;0.00;;;0.00;;
22107;SDS011;11220;48.812;9.128;2023-08-06T11:28:19;0.00;;;0.00;;
22107;SDS011;11220;48.812;9.128;2023-08-06T11:30:46;0.00;;;0.00;;
22107;SDS011;11220;48.812;9.128;2023-08-06T11:33:12;0.00;;;0.00;;
22107;SDS011;11220;48.812;9.128;2023-08-06T11:35:37;0.00;;;0.00;;
22107;SDS011;11220;48.812;9.128;2023-08-06T11:38:04;0.10;;;0.00;;
22107;SDS011;11220;48.812;9.128;2023-08-06T11:40:31;0.10;;;0.00;;
22107;SDS011;11220;48.812;9.128;2023-08-06T11:42:57;0.00;;;0.00;;
22107;SDS011;11220;48.812;9.128;2023-08-06T11:45:26;0.00;;;0.00;;
22107;SDS011;11220;48.812;9.128;2023-08-06T11:47:52;0.00;;;0.00;;
22107;SDS011;11220;48.812;9.128;2023-08-06T11:50:27;0.00;;;0.00;;
22107;SDS011;11220;48.812;9.128;2023-08-06T11:52:56;0.10;;;0.10;;
22107;SDS011;11220;48.812;9.128;2023-08-06T11:55:24;0.10;;;0.00;;
22107;SDS011;11220;48.812;9.128;2023-08-06T11:57:50;0.10;;;0.10;;
22107;SDS011;11220;48.812;9.128;2023-08-06T12:00:16;0.10;;;0.10;;
22107;SDS011;11220;48.812;9.128;2023-08-06T12:02:44;0.10;;;0.10;;
22107;SDS011;11220;48.812;9.128;2023-08-06T12:05:11;0.17;;;0.15;;
22107;SDS011;11220;48.812;9.128;2023-08-06T12:07:40;0.40;;;0.10;;
22107;SDS011;11220;48.812;9.128;2023-08-06T12:10:07;0.10;;;0.10;;
22107;SDS011;11220;48.812;9.128;2023-08-06T12:12:33;0.20;;;0.20;;
22107;SDS011;11220;48.812;9.128;2023-08-06T12:14:59;0.20;;;0.20;;
22107;SDS011;11220;48.812;9.128;2023-08-06T12:17:25;0.20;;;0.20;;
22107;SDS011;11220;48.812;9.128;2023-08-06T12:19:51;0.35;;;0.10;;
22107;SDS011;11220;48.812;9.128;2023-08-06T12:22:16;0.30;;;0.20;;
22107;SDS011;11220;48.812;9.128;2023-08-06T12:24:43;0.30;;;0.10;;
22107;SDS011;11220;48.812;9.128;2023-08-06T12:27:10;0.20;;;0.20;;
22107;SDS011;11220;48.812;9.128;2023-08-06T12:29:47;0.40;;;0.20;;
22107;SDS011;11220;48.812;9.128;2023-08-06T12:32:13;0.13;;;0.10;;
22107;SDS011;11220;48.812;9.128;2023-08-06T12:34:40;0.20;;;0.20;;
22107;SDS011;11220;48.812;9.128;2023-08-06T12:37:06;0.20;;;0.20;;
22107;SDS011;11220;48.812;9.128;2023-08-06T12:39:32;0.35;;;0.20;;
22107;SDS011;11220;48.812;9.128;2023-08-06T12:41:59;0.10;;;0.10;;
22107;SDS011;11220;48.812;9.128;2023-08-06T12:44:25;0.13;;;0.10;;
22107;SDS011;11220;48.812;9.128;2023-08-06T12:46:51;0.20;;;0.10;;
22107;SDS011;11220;48.812;9.128;2023-08-06T12:49:17;0.20;;;0.10;;
22107;SDS011;11220;48.812;9.128;2023-08-06T12:51:43;0.20;;;0.20;;
22107;SDS011;11220;48.812;9.128;2023-08-06T12:54:09;0.15;;;0.10;;
22107;SDS011;11220;48.812;9.128;2023-08-06T12:56:34;0.10;;;0.10;;
22107;SDS011;11220;48.812;9.128;2023-08-06T12:59:00;0.15;;;0.10;;
22107;SDS011;11220;48.812;9.128;2023-08-06T13:01:25;0.10;;;0.10;;
22107;SDS011;11220;48.812;9.128;2023-08-06T13:03:51;0.03;;;0.03;;
22107;SDS011;11220;48.812;9.128;2023-08-06T13:06:16;0.13;;;0.10;;
22107;SDS011;11220;48.812;9.128;2023-08-06T13:08:42;0.20;;;0.15;;
22107;SDS011;11220;48.812;9.128;2023-08-06T13:11:07;0.17;;;0.10;;
22107;SDS011;11220;48.812;9.128;2023-08-06T13:13:33;0.10;;;0.10;;
22107;SDS011;11220;48.812;9.128;2023-08-06T13:15:59;0.05;;;0.05;;
22107;SDS011;11220;48.812;9.128;2023-08-06T13:18:24;0.10;;;0.10;;
22107;SDS011;11220;48.812;9.128;2023-08-06T13:20:51;0.10;;;0.08;;
22107;SDS011;11220;48.812;9.128;2023-08-06T13:23:19;0.80;;;0.20;;
22107;SDS011;11220;48.812;9.128;2023-08-06T13:25:45;0.30;;;0.10;;
22107;SDS011;11220;48.812;9.128;2023-08-06T13:28:10;0.28;;;0.10;;
22107;SDS011;11220;48.812;9.128;2023-08-06T13:30:36;0.10;;;0.10;;
22107;SDS011;11220;48.812;9.128;2023-08-06T13:33:06;0.10;;;0.10;;
22107;SDS011;11220;48.812;9.128;2023-08-06T13:35:35;0.20;;;0.10;;
22107;SDS011;11220;48.812;9.128;2023-08-06T13:38:01;0.17;;;0.17;;
22107;SDS011;11220;48.812;9.128;2023-08-06T13:40:29;0.30;;;0.30;;
22107;SDS011;11220;48.812;9.128;2023-08-06T13:42:57;0.10;;;0.10;;
22107;SDS011;11220;48.812;9.128;2023-08-06T13:45:23;0.10;;;0.03;;
22107;SDS011;11220;48.812;9.128;2023-08-06T13:47:48;0.10;;;0.10;;
22107;SDS011;11220;48.812;9.128;2023-08-06T13:50:14;0.10;;;0.10;;
22107;SDS011;11220;48.812;9.128;2023-08-06T13:52:39;0.17;;;0.10;;
22107;SDS011;11220;48.812;9.128;2023-08-06T13:55:05;0.30;;;0.10;;
22107;SDS011;11220;48.812;9.128;2023-08-06T13:57:31;0.10;;;0.10;;
22107;SDS011;11220;48.812;9.128;2023-08-06T13:59:57;0.30;;;0.08;;
22107;SDS011;11220;48.812;9.128;2023-08-06T14:02:23;0.20;;;0.10;;
22107;SDS011;11220;48.812;9.128;2023-08-06T14:04:48;0.13;;;0.10;;
22107;SDS011;11220;48.812;9.128;2023-08-06T14:07:14;0.00;;;0.00;;
22107;SDS011;11220;48.812;9.128;2023-08-06T14:09:39;0.03;;;0.00;;
22107;SDS011;11220;48.812;9.128;2023-08-06T14:12:07;0.13;;;0.05;;
22107;SDS011;11220;48.812;9.128;2023-08-06T14:14:32;0.15;;;0.10;;
22107;SDS011;11220;48.812;9.128;2023-08-06T14:16:58;0.10;;;0.10;;
22107;SDS011;11220;48.812;9.128;2023-08-06T14:19:23;0.13;;;0.13;;
22107;SDS011;11220;48.812;9.128;2023-08-06T14:21:49;0.00;;;0.00;;
22107;SDS011;11220;48.812;9.128;2023-08-06T14:24:15;0.03;;;0.03;;
22107;SDS011;11220;48.812;9.128;2023-08-06T14:26:40;0.20;;;0.20;;
22107;SDS011;11220;48.812;9.128;2023-08-06T14:29:06;0.00;;;0.00;;
22107;SDS011;11220;48.812;9.128;2023-08-06T14:31:31;0.00;;;0.00;;
22107;SDS011;11220;48.812;9.128;2023-08-06T14:33:57;0.20;;;0.00;;
22107;SDS011;11220;48.812;9.128;2023-08-06T14:36:23;0.10;;;0.03;;
22107;SDS011;11220;48.812;9.128;2023-08-06T14:38:48;0.10;;;0.00;;
22107;SDS011;11220;48.812;9.128;2023-08-06T14:41:14;0.00;;;0.00;;
22107;SDS011;11220;48.812;9.128;2023-08-06T14:43:39;0.00;;;0.00;;
22107;SDS011;11220;48.812;9.128;2023-08-06T14:46:05;0.08;;;0.08;;
22107;SDS011;11220;48.812;9.128;2023-08-06T14:48:30;0.10;;;0.10;;
22107;SDS011;11220;48.812;9.128;2023-08-06T14:50:56;0.00;;;0.00;;
22107;SDS011;11220;48.812;9.128;2023-08-06T14:53:22;0.10;;;0.10;;
22107;SDS011;11220;48.812;9.128;2023-08-06T14:55:47;0.00;;;0.00;;
22107;SDS011;11220;48.812;9.128;2023-08-06T14:58:13;0.00;;;0.00;;
22107;SDS011;11220;48.812;9.128;2023-08-06T15:00:39;0.03;;;0.03;;